Time;durP1;ratioP1;P1;durP2;ratioP2;P2;SDS_P1;SDS_P2;PMS_P1;PMS_P2;Temp;Humidity;BMP_temperature;BMP_pressure;BME280_temperature;BME280_humidity;BME280_pressure;Samples;Min_cycle;Max_cycle;Signal;HPM_P1;HPM_P2
2022/07/02 03:07:55;;;;;;;;;;;;;;;14.88;77.53;100517.97;959466;54;52193;-81
2022/07/02 03:08:56;;;;;;;;;;;;;;;14.88;77.43;100520.66;1088127;54;19938;-79
2022/07/02 04:19:22;;;;;;;;;;;;;;;14.58;77.55;100552.41;1087589;54;19995;-80
2022/07/02 04:20:26;;;;;;;;;;;;;;;14.61;77.16;100544.03;1090656;39;20645;-82
2022/07/02 04:21:34;;;;;;;;;;;;;;;14.64;77.24;100555.31;1087668;54;19946;-80
2022/07/02 04:22:38;;;;;;;;;;;;;;;14.64;77.18;100549.94;1087471;54;19943;-82
2022/07/02 04:23:44;;;;;;;;;;;;;;;14.69;76.71;100551.34;1087827;54;19939;-79
2022/07/02 04:26:09;;;;;;;;;;;;;;;14.70;76.63;100544.94;1087418;54;19942;-80
2022/07/02 04:27:10;;;;;;;;;;;;;;;14.71;76.93;100544.78;1087851;54;19942;-82
2022/07/02 04:28:14;;;;;;;;;;;;;;;14.72;76.70;100549.19;1088081;54;19950;-81
2022/07/02 04:29:15;;;;;;;;;;;;;;;14.69;76.79;100545.97;1092079;47;19938;-80
2022/07/02 04:30:21;;;;;;;;;;;;;;;14.69;76.98;100552.19;1088173;54;19941;-80
2022/07/02 04:31:22;;;;;;;;;;;;;;;14.74;77.04;100543.63;1088049;54;19943;-80
2022/07/02 04:32:27;;;;;;;;;;;;;;;14.78;76.61;100542.31;1088047;54;19943;-78
2022/07/02 04:33:28;;;;;;;;;;;;;;;14.82;76.63;100544.53;1088029;54;19951;-81
2022/07/02 04:34:35;;;;;;;;;;;;;;;14.84;76.22;100543.50;1088005;54;19926;-78
2022/07/02 04:35:36;;;;;;;;;;;;;;;14.88;76.09;100544.88;1087931;54;19943;-81
2022/07/02 04:36:44;;;;;;;;;;;;;;;14.89;76.21;100543.88;1087935;54;19946;-81
2022/07/02 04:37:47;;;;;;;;;;;;;;;14.93;76.43;100547.91;1087856;54;19927;-82
2022/07/02 04:38:51;;;;;;;;;;;;;;;14.93;76.08;100548.78;1087822;54;19973;-79
2022/07/02 04:39:53;;;;;;;;;;;;;;;14.98;75.85;100554.50;1087865;54;19943;-78
2022/07/02 04:40:57;;;;;;;;;;;;;;;15.03;75.95;100548.63;1088204;39;20799;-79
2022/07/02 04:41:58;;;;;;;;;;;;;;;15.05;75.91;100557.41;1087887;54;19943;-80
2022/07/02 04:43:02;;;;;;;;;;;;;;;15.09;75.48;100556.09;1087778;54;19943;-80
2022/07/02 04:44:07;;;;;;;;;;;;;;;15.09;75.28;100548.00;1088142;47;19942;-80
2022/07/02 04:45:11;;;;;;;;;;;;;;;15.10;75.28;100555.09;1087708;54;19942;-80
2022/07/02 04:46:12;;;;;;;;;;;;;;;15.06;75.68;100558.25;1088343;47;19949;-81
2022/07/02 04:47:16;;;;;;;;;;;;;;;15.03;76.07;100551.31;1089551;47;19994;-80
2022/07/02 04:48:17;;;;;;;;;;;;;;;15.05;75.64;100552.03;1089718;47;19949;-80
2022/07/02 04:49:21;;;;;;;;;;;;;;;15.07;75.58;100554.53;1088077;54;19942;-80
2022/07/02 04:50:25;;;;;;;;;;;;;;;15.08;75.57;100546.31;1087919;54;19942;-79
2022/07/02 04:51:29;;;;;;;;;;;;;;;15.09;75.74;100553.41;1087824;54;20662;-79
2022/07/02 04:52:30;;;;;;;;;;;;;;;15.06;75.65;100548.31;1088158;54;19950;-79
2022/07/02 04:53:34;;;;;;;;;;;;;;;15.05;75.88;100549.31;1088475;54;19942;-80
2022/07/02 04:54:36;;;;;;;;;;;;;;;15.13;75.56;100552.03;1088549;54;19943;-81
2022/07/02 04:55:41;;;;;;;;;;;;;;;15.19;75.27;100547.03;1088569;54;19942;-81
2022/07/02 04:56:42;;;;;;;;;;;;;;;15.23;75.34;100546.53;1088564;54;19934;-82
2022/07/02 04:57:46;;;;;;;;;;;;;;;15.29;75.26;100540.50;1088615;54;19951;-81
2022/07/02 04:58:50;;;;;;;;;;;;;;;15.33;75.10;100543.69;1088501;54;19999;-81
2022/07/02 05:00:05;;;;;;;;;;;;;;;15.37;75.04;100544.22;1088457;54;19931;-80
2022/07/02 05:01:09;;;;;;;;;;;;;;;15.35;74.98;100547.06;1088131;54;20649;-80
2022/07/02 05:02:10;;;;;;;;;;;;;;;15.32;74.79;100547.41;1088132;54;19943;-81
2022/07/02 05:03:21;;;;;;;;;;;;;;;15.23;75.25;100543.00;1088234;54;20210;-80
2022/07/02 05:04:23;;;;;;;;;;;;;;;15.33;75.03;100546.41;1089425;46;20550;-83
2022/07/02 05:05:29;;;;;;;;;;;;;;;15.37;74.60;100545.06;1088366;54;20563;-79
2022/07/02 05:06:33;;;;;;;;;;;;;;;15.40;74.81;100542.03;1088106;54;19935;-81
2022/07/02 05:07:35;;;;;;;;;;;;;;;15.43;74.69;100540.88;1088148;54;19950;-80
2022/07/02 05:08:47;;;;;;;;;;;;;;;15.46;74.62;100547.78;1088064;54;19994;-80
2022/07/02 05:09:48;;;;;;;;;;;;;;;15.40;74.24;100542.03;1088228;54;19943;-81
2022/07/02 05:11:06;;;;;;;;;;;;;;;15.33;74.92;100549.09;1088166;54;19942;-80
2022/07/02 05:12:08;;;;;;;;;;;;;;;15.46;74.55;100558.56;1089583;39;20588;-81
2022/07/02 05:13:12;;;;;;;;;;;;;;;15.51;74.31;100550.81;1088179;54;19998;-81
2022/07/02 05:14:14;;;;;;;;;;;;;;;15.53;74.33;100551.50;1088194;54;19990;-79
2022/07/02 05:15:20;;;;;;;;;;;;;;;15.50;74.48;100549.97;1088188;54;19942;-81
2022/07/02 05:16:21;;;;;;;;;;;;;;;15.52;74.26;100544.41;1088222;54;19926;-83
2022/07/02 05:17:26;;;;;;;;;;;;;;;15.54;74.32;100547.78;1088356;54;19935;-81
2022/07/02 05:18:28;;;;;;;;;;;;;;;15.59;74.08;100545.44;1088182;54;19957;-82
2022/07/02 05:19:32;;;;;;;;;;;;;;;15.59;74.25;100551.69;1088424;54;19930;-82
2022/07/02 05:22:10;;;;;;;;;;;;;;;15.52;74.25;100550.66;1089569;39;21038;-83
2022/07/02 05:23:12;;;;;;;;;;;;;;;15.59;74.19;100548.13;1087979;54;20729;-82
2022/07/02 05:24:16;;;;;;;;;;;;;;;15.62;74.00;100553.19;1088426;54;19949;-82
2022/07/02 05:25:17;;;;;;;;;;;;;;;15.67;74.00;100544.63;1088443;54;19959;-83
2022/07/02 05:26:22;;;;;;;;;;;;;;;15.69;73.68;100546.13;1088305;54;19926;-82
2022/07/02 05:28:57;;;;;;;;;;;;;;;15.80;73.88;100552.22;1088122;54;19931;-82
2022/07/02 05:29:58;;;;;;;;;;;;;;;15.81;73.42;100543.97;1088317;54;19949;-82
2022/07/02 05:31:06;;;;;;;;;;;;;;;15.79;73.62;100553.22;1088294;54;19942;-81
2022/07/02 05:32:12;;;;;;;;;;;;;;;15.87;73.28;100547.91;1088223;54;19942;-81
2022/07/02 05:34:47;;;;;;;;;;;;;;;15.97;73.11;100558.50;1088034;54;19941;-81
2022/07/02 05:35:54;;;;;;;;;;;;;;;16.01;73.18;100552.59;1091765;39;20345;-83
2022/07/02 05:36:57;;;;;;;;;;;;;;;16.05;72.71;100553.09;1088181;54;19950;-83
2022/07/02 05:38:10;;;;;;;;;;;;;;;16.09;73.01;100548.22;1088279;54;19999;-83
2022/07/02 05:39:11;;;;;;;;;;;;;;;16.14;72.58;100548.56;1088173;54;20002;-82
2022/07/02 05:40:20;;;;;;;;;;;;;;;16.17;72.34;100553.59;1088235;54;19943;-81
2022/07/02 05:41:22;;;;;;;;;;;;;;;16.22;72.33;100553.97;1089753;46;19949;-82
2022/07/02 05:42:28;;;;;;;;;;;;;;;16.22;72.50;100551.25;1088239;54;19942;-81
2022/07/02 05:43:30;;;;;;;;;;;;;;;16.30;72.09;100556.66;1088267;47;19994;-81
2022/07/02 05:44:34;;;;;;;;;;;;;;;16.31;72.19;100558.34;1088109;54;19927;-82
2022/07/02 05:45:35;;;;;;;;;;;;;;;16.32;72.13;100557.31;1088160;54;19942;-81
2022/07/02 05:46:39;;;;;;;;;;;;;;;16.30;72.21;100562.03;1088197;54;19998;-83
2022/07/02 05:47:41;;;;;;;;;;;;;;;16.30;71.91;100556.66;1089377;46;19942;-82
2022/07/02 05:48:45;;;;;;;;;;;;;;;16.27;71.70;100551.56;1088458;54;19985;-81
2022/07/02 05:49:55;;;;;;;;;;;;;;;16.30;71.84;100550.38;1094750;46;19942;-82
2022/07/02 05:54:23;;;;;;;;;;;;;;;16.49;71.34;100557.28;1089975;46;19958;-81
2022/07/02 06:03:43;;;;;;;;;;;;;;;16.68;70.80;100567.72;1087703;54;19943;-83
2022/07/02 06:04:49;;;;;;;;;;;;;;;16.71;70.89;100553.03;1087703;54;19942;-82
2022/07/02 06:08:37;;;;;;;;;;;;;;;16.73;70.74;100555.53;1087615;54;19941;-81
2022/07/02 06:09:51;;;;;;;;;;;;;;;16.78;70.57;100558.59;1088684;46;19949;-80
2022/07/02 06:11:32;;;;;;;;;;;;;;;16.84;70.16;100561.44;1087579;54;19959;-80
2022/07/02 06:12:43;;;;;;;;;;;;;;;16.92;69.87;100560.56;1087489;54;19942;-81
2022/07/02 06:14:04;;;;;;;;;;;;;;;16.87;69.94;100554.84;1087608;54;19946;-80
2022/07/02 06:15:06;;;;;;;;;;;;;;;16.83;69.99;100558.88;1087729;54;19953;-81
2022/07/02 06:16:10;;;;;;;;;;;;;;;16.84;69.95;100560.56;1087554;54;19946;-80
2022/07/02 06:17:11;;;;;;;;;;;;;;;16.83;70.04;100556.19;1087640;54;19942;-80
2022/07/02 06:18:15;;;;;;;;;;;;;;;16.80;70.12;100551.16;1087621;54;19943;-79
2022/07/02 06:19:16;;;;;;;;;;;;;;;16.85;70.00;100554.16;1087697;54;19943;-81
2022/07/02 06:20:20;;;;;;;;;;;;;;;16.87;69.64;100559.38;1087942;54;19958;-79
2022/07/02 06:21:21;;;;;;;;;;;;;;;16.92;70.09;100554.31;1087395;54;20785;-80
2022/07/02 06:22:39;;;;;;;;;;;;;;;16.97;69.95;100562.75;1087692;54;19942;-80
2022/07/02 06:23:40;;;;;;;;;;;;;;;17.03;69.50;100558.53;1087115;54;19942;-81
2022/07/02 06:24:45;;;;;;;;;;;;;;;17.05;69.28;100557.31;1087077;54;20031;-82
2022/07/02 06:26:06;;;;;;;;;;;;;;;17.10;69.33;100551.41;1087633;54;19954;-80
2022/07/02 06:27:16;;;;;;;;;;;;;;;17.12;69.07;100549.38;1087454;54;19966;-80
2022/07/02 06:28:20;;;;;;;;;;;;;;;17.14;69.14;100558.16;1091194;39;20883;-80
2022/07/02 06:29:23;;;;;;;;;;;;;;;17.12;69.24;100554.78;1087560;54;20650;-81
2022/07/02 06:30:28;;;;;;;;;;;;;;;17.14;69.14;100548.16;1087730;54;19946;-81
2022/07/02 06:31:29;;;;;;;;;;;;;;;17.21;69.16;100555.59;1087636;54;19949;-80
2022/07/02 06:32:33;;;;;;;;;;;;;;;17.25;68.99;100549.66;1087635;54;19949;-82
2022/07/02 06:33:39;;;;;;;;;;;;;;;17.19;69.25;100549.50;1087611;54;19942;-81
2022/07/02 06:34:54;;;;;;;;;;;;;;;17.13;69.21;100557.31;1087661;54;19966;-81
2022/07/02 06:36:27;;;;;;;;;;;;;;;;;;;;;
2022/07/02 06:52:16;;;;;;;;;;;;;;;18.14;67.43;100543.00;1088143;54;19934;-82
2022/07/02 06:54:53;;;;;;;;;;;;;;;18.31;66.53;100540.16;1088062;54;19942;-82
2022/07/02 07:07:37;;;;;;;;;;;;;;;19.31;63.82;100544.28;1087948;54;19949;-82
2022/07/02 07:08:38;;;;;;;;;;;;;;;19.40;63.45;100533.31;1088313;54;19930;-82
2022/07/02 07:09:42;;;;;;;;;;;;;;;19.54;63.42;100532.44;1095972;39;20514;-83
2022/07/02 07:10:44;;;;;;;;;;;;;;;19.66;62.90;100535.47;1088320;54;19966;-80
2022/07/02 07:20:36;;;;;;;;;;;;;;;20.16;60.96;100521.13;1087658;54;21605;-83
2022/07/02 07:21:39;;;;;;;;;;;;;;;20.19;60.96;100529.72;1087498;54;20037;-83
2022/07/02 07:22:45;;;;;;;;;;;;;;;20.34;60.51;100524.19;1088372;54;19955;-83
2022/07/02 07:23:47;;;;;;;;;;;;;;;20.38;60.22;100521.94;1090996;46;19966;-83
2022/07/02 07:24:51;;;;;;;;;;;;;;;20.45;60.32;100519.25;1088305;54;19943;-81
2022/07/02 07:25:53;;;;;;;;;;;;;;;20.48;60.08;100522.41;1088246;54;20655;-83
2022/07/02 07:26:57;;;;;;;;;;;;;;;20.61;59.88;100521.66;1088295;54;19942;-82
2022/07/02 07:27:58;;;;;;;;;;;;;;;20.72;59.41;100523.81;1088316;54;19943;-78
2022/07/02 07:29:05;;;;;;;;;;;;;;;20.57;58.92;100517.69;1088262;54;19934;-80
2022/07/02 07:30:07;;;;;;;;;;;;;;;20.76;59.67;100518.84;1088305;54;19966;-80
2022/07/02 07:31:11;;;;;;;;;;;;;;;20.72;59.21;100518.38;1088241;54;19942;-81
2022/07/02 07:32:12;;;;;;;;;;;;;;;20.87;59.11;100517.47;1088313;46;19938;-82
2022/07/02 07:33:16;;;;;;;;;;;;;;;20.88;58.70;100517.25;1087920;54;19943;-83
2022/07/02 07:34:20;;;;;;;;;;;;;;;20.96;58.58;100521.69;1087816;54;19943;-81
2022/07/02 07:35:21;;;;;;;;;;;;;;;20.95;58.28;100511.00;1087865;54;19966;-81
2022/07/02 07:36:26;;;;;;;;;;;;;;;21.11;58.19;100517.97;1087826;54;19942;-80
2022/07/02 07:37:30;;;;;;;;;;;;;;;21.23;58.59;100513.63;1087875;54;19942;-80
2022/07/02 07:38:34;;;;;;;;;;;;;;;21.20;57.74;100511.31;1087824;54;19942;-81
2022/07/02 07:39:40;;;;;;;;;;;;;;;21.35;57.70;100511.97;1087840;54;19949;-78
2022/07/02 07:40:41;;;;;;;;;;;;;;;21.44;57.09;100515.38;1088152;47;19942;-78
2022/07/02 07:41:45;;;;;;;;;;;;;;;21.42;57.17;100517.44;1087901;54;19927;-78
2022/07/02 07:42:48;;;;;;;;;;;;;;;21.48;57.44;100511.22;1087844;54;19977;-78
2022/07/02 07:43:54;;;;;;;;;;;;;;;21.65;57.13;100513.56;1087965;54;19942;-79
2022/07/02 07:44:57;;;;;;;;;;;;;;;21.77;56.53;100519.22;1088278;54;19946;-80
2022/07/02 07:45:59;;;;;;;;;;;;;;;21.90;56.43;100518.41;1087917;54;19949;-79
2022/07/02 07:47:03;;;;;;;;;;;;;;;22.03;55.77;100510.25;1087877;54;19999;-82
2022/07/02 07:48:05;;;;;;;;;;;;;;;22.17;55.56;100502.91;1087894;54;19952;-81
2022/07/02 07:49:10;;;;;;;;;;;;;;;22.15;54.75;100498.72;1087869;54;19950;-80
2022/07/02 07:50:11;;;;;;;;;;;;;;;22.37;55.26;100502.06;1088271;54;19943;-80
2022/07/02 07:51:16;;;;;;;;;;;;;;;22.45;54.79;100501.88;1088164;54;19950;-76
2022/07/02 07:52:17;;;;;;;;;;;;;;;22.59;54.62;100505.41;1090246;39;20212;-77
2022/07/02 07:53:21;;;;;;;;;;;;;;;22.69;54.24;100504.94;1088263;54;19927;-77
2022/07/02 07:54:27;;;;;;;;;;;;;;;22.80;54.29;100498.81;1088264;54;19950;-79
2022/07/02 07:55:29;;;;;;;;;;;;;;;22.94;54.13;100498.78;1088286;54;19927;-78
2022/07/02 07:56:33;;;;;;;;;;;;;;;23.04;53.29;100499.16;1088159;54;19943;-78
2022/07/02 07:57:34;;;;;;;;;;;;;;;23.16;53.44;100494.69;1088236;54;19987;-77
2022/07/02 07:58:55;;;;;;;;;;;;;;;23.03;52.10;100501.03;1088274;54;19926;-80
2022/07/02 08:00:08;;;;;;;;;;;;;;;22.94;52.87;100496.06;1088120;54;19961;-81
2022/07/02 08:03:28;;;;;;;;;;;;;;;23.19;52.45;100488.03;1088212;54;19939;-80
2022/07/02 08:04:32;;;;;;;;;;;;;;;23.15;51.55;100484.84;1092313;47;20026;-80
2022/07/02 08:05:38;;;;;;;;;;;;;;;23.16;51.84;100494.69;1088310;54;19970;-79
2022/07/02 08:06:42;;;;;;;;;;;;;;;23.03;51.23;100489.31;1088390;47;19934;-76
2022/07/02 08:07:52;;;;;;;;;;;;;;;23.11;51.54;100486.34;1088222;54;19934;-78
2022/07/02 08:09:08;;;;;;;;;;;;;;;23.26;51.75;100486.09;1088174;54;19942;-78
2022/07/02 08:10:12;;;;;;;;;;;;;;;23.39;51.10;100487.03;1088247;54;19943;-76
2022/07/02 08:11:16;;;;;;;;;;;;;;;23.51;51.39;100480.69;1088202;54;19995;-79
2022/07/02 08:12:40;;;;;;;;;;;;;;;23.30;50.47;100475.56;1088241;54;19942;-80
2022/07/02 08:15:17;;;;;;;;;;;;;;;22.75;51.13;100476.84;1088074;54;19965;-79
2022/07/02 08:25:45;;;;;;;;;;;;;;;23.16;49.02;100461.16;1087749;54;19950;-79
2022/07/02 08:37:13;;;;;;;;;;;;;;;23.46;46.65;100447.75;1091077;39;20705;-80
2022/07/02 08:38:14;;;;;;;;;;;;;;;23.89;46.22;100450.81;1088659;54;19943;-78
2022/07/02 08:39:19;;;;;;;;;;;;;;;24.10;45.42;100439.50;1088529;54;19934;-79
2022/07/02 08:42:25;;;;;;;;;;;;;;;24.49;44.92;100443.94;1088150;54;19926;-80
2022/07/02 08:45:13;;;;;;;;;;;;;;;24.51;43.06;100447.28;1088497;54;20536;-79
2022/07/02 08:46:46;;;;;;;;;;;;;;;24.27;44.15;100444.41;1088431;54;19977;-81
2022/07/02 08:48:14;;;;;;;;;;;;;;;24.56;42.78;100442.78;1088240;54;19968;-79
2022/07/02 08:49:34;;;;;;;;;;;;;;;24.91;43.50;100433.97;1088507;54;19943;-82
2022/07/02 08:50:39;;;;;;;;;;;;;;;25.11;42.45;100430.13;1088527;54;19927;-81
2022/07/02 08:52:07;;;;;;;;;;;;;;;25.34;42.05;100425.81;1088751;46;19946;-79
2022/07/02 08:58:15;;;;;;;;;;;;;;;26.03;38.62;100430.78;1088590;39;20579;-80
2022/07/02 08:59:20;;;;;;;;;;;;;;;26.09;37.12;100426.31;1088190;54;19950;-83
2022/07/02 09:00:26;;;;;;;;;;;;;;;26.16;36.30;100429.78;1088221;54;19942;-80
2022/07/02 09:01:27;;;;;;;;;;;;;;;26.12;35.66;100431.31;1088304;46;19942;-81
2022/07/02 09:02:32;;;;;;;;;;;;;;;26.11;35.19;100430.50;1088233;54;19927;-80
2022/07/02 09:03:34;;;;;;;;;;;;;;;26.21;35.40;100429.88;1088288;54;19955;-79
2022/07/02 09:04:42;;;;;;;;;;;;;;;26.05;33.67;100425.91;1088248;54;19943;-79
2022/07/02 09:05:43;;;;;;;;;;;;;;;25.92;34.23;100426.19;1088195;54;19965;-79
2022/07/02 09:06:48;;;;;;;;;;;;;;;25.60;33.88;100421.84;1088221;54;19938;-80
2022/07/02 09:07:50;;;;;;;;;;;;;;;25.45;34.01;100426.94;1088217;54;19950;-78
2022/07/02 09:08:54;;;;;;;;;;;;;;;25.89;34.57;100423.91;1097256;39;20706;-78
2022/07/02 09:10:20;;;;;;;;;;;;;;;26.12;34.17;100414.88;1088154;54;19927;-78
2022/07/02 09:11:22;;;;;;;;;;;;;;;26.40;34.09;100410.56;1087977;54;19994;-83
2022/07/02 09:12:29;;;;;;;;;;;;;;;26.63;33.97;100416.00;1088147;54;19942;-86
2022/07/02 09:13:34;;;;;;;;;;;;;;;26.47;32.33;100411.25;1089034;46;19926;-81
2022/07/02 09:14:35;;;;;;;;;;;;;;;26.49;32.56;100403.63;1088445;46;19926;-84
2022/07/02 09:16:57;;;;;;;;;;;;;;;26.55;31.56;100401.81;1088128;54;19942;-85
2022/07/02 09:18:07;;;;;;;;;;;;;;;26.30;31.73;100406.53;1087989;54;19939;-82
2022/07/02 09:19:28;;;;;;;;;;;;;;;26.26;32.44;100399.84;1087845;54;19943;-83
2022/07/02 09:20:32;;;;;;;;;;;;;;;26.32;32.00;100398.03;1088027;54;19939;-84
2022/07/02 09:25:12;;;;;;;;;;;;;;;26.53;30.85;100393.84;1087732;54;19926;-83
2022/07/02 09:26:19;;;;;;;;;;;;;;;26.34;31.09;100393.16;1088052;46;19978;-80
2022/07/02 09:27:23;;;;;;;;;;;;;;;26.33;31.99;100394.25;1087867;54;19949;-82
2022/07/02 09:30:08;;;;;;;;;;;;;;;26.01;31.99;100395.44;1087858;54;19943;-81
2022/07/02 09:31:09;;;;;;;;;;;;;;;26.38;32.25;100399.00;1087750;54;19942;-82
2022/07/02 09:32:35;;;;;;;;;;;;;;;26.47;32.22;100400.28;1087864;54;19972;-81
2022/07/02 09:33:39;;;;;;;;;;;;;;;26.70;32.13;100391.16;1087924;54;19943;-83
2022/07/02 09:35:48;;;;;;;;;;;;;;;26.88;31.69;100387.44;1088419;54;19966;-81
2022/07/02 09:36:49;;;;;;;;;;;;;;;27.05;32.10;100389.38;1088400;54;19943;-83
2022/07/02 09:37:53;;;;;;;;;;;;;;;27.19;31.84;100379.78;1088217;54;20194;-81
2022/07/02 09:38:56;;;;;;;;;;;;;;;27.27;31.59;100384.00;1088357;54;19950;-82
2022/07/02 09:40:02;;;;;;;;;;;;;;;27.37;31.75;100375.13;1088351;54;19935;-84
2022/07/02 09:41:04;;;;;;;;;;;;;;;27.52;31.76;100378.13;1090162;46;19946;-83
2022/07/02 09:42:09;;;;;;;;;;;;;;;27.69;31.19;100382.78;1088371;54;20038;-83
2022/07/02 09:43:10;;;;;;;;;;;;;;;27.54;30.13;100375.13;1089218;46;19951;-82
2022/07/02 09:45:28;;;;;;;;;;;;;;;27.68;30.48;100373.72;1088670;54;19927;-83
2022/07/02 09:46:32;;;;;;;;;;;;;;;27.83;30.55;100372.28;1088492;54;19966;-82
2022/07/02 09:47:34;;;;;;;;;;;;;;;27.67;29.67;100374.81;1090123;46;19973;-83
2022/07/02 09:48:38;;;;;;;;;;;;;;;27.74;30.38;100379.28;1088445;54;19951;-83
2022/07/02 09:49:47;;;;;;;;;;;;;;;27.82;30.22;100367.91;1088543;54;19943;-82
2022/07/02 09:50:51;;;;;;;;;;;;;;;27.68;28.96;100370.97;1088497;54;19949;-83
2022/07/02 09:51:53;;;;;;;;;;;;;;;27.33;29.48;100373.94;1089740;46;19942;-83
2022/07/02 09:52:57;;;;;;;;;;;;;;;27.35;30.51;100366.28;1088180;54;19947;-83
2022/07/02 09:53:59;;;;;;;;;;;;;;;27.14;30.18;100365.94;1088202;54;19949;-83
2022/07/02 09:55:03;;;;;;;;;;;;;;;26.82;30.21;100377.44;1088220;54;19943;-83
2022/07/02 09:57:11;;;;;;;;;;;;;;;27.07;29.78;100371.59;1087627;54;19943;-83
2022/07/02 09:59:18;;;;;;;;;;;;;;;27.06;29.93;100366.34;1088377;54;19943;-83
2022/07/02 10:01:28;;;;;;;;;;;;;;;26.97;30.34;100376.06;1088795;54;19926;-84
2022/07/02 10:02:29;;;;;;;;;;;;;;;26.93;30.12;100362.00;1092201;46;19935;-84
2022/07/02 10:03:34;;;;;;;;;;;;;;;27.23;29.80;100358.97;1088675;54;19923;-84
2022/07/02 10:04:35;;;;;;;;;;;;;;;27.34;29.49;100361.88;1088697;54;20622;-84
2022/07/02 10:06:43;;;;;;;;;;;;;;;27.60;29.49;100368.66;1088560;54;19941;-85
2022/07/02 10:09:58;;;;;;;;;;;;;;;27.38;28.89;100371.31;1088085;54;19927;-84
2022/07/02 10:12:05;;;;;;;;;;;;;;;27.66;28.88;100373.13;1087970;54;19961;-82
2022/07/02 10:13:10;;;;;;;;;;;;;;;27.60;27.75;100373.31;1087994;54;19943;-83
2022/07/02 10:14:14;;;;;;;;;;;;;;;27.62;28.08;100365.66;1088359;54;19951;-81
2022/07/02 10:15:21;;;;;;;;;;;;;;;27.70;27.91;100368.81;1088390;54;19935;-83
2022/07/02 10:16:29;;;;;;;;;;;;;;;27.67;27.60;100366.56;1088280;54;19935;-83
2022/07/02 10:17:33;;;;;;;;;;;;;;;27.66;27.40;100361.34;1088406;54;19943;-83
2022/07/02 10:18:36;;;;;;;;;;;;;;;27.63;26.10;100362.66;1088405;54;19942;-82
2022/07/02 10:19:38;;;;;;;;;;;;;;;27.32;27.39;100362.16;1088291;54;19960;-81
2022/07/02 10:20:42;;;;;;;;;;;;;;;27.42;27.59;100355.97;1088333;54;19954;-84
2022/07/02 10:21:43;;;;;;;;;;;;;;;27.35;27.23;100342.41;1088309;54;19935;-83
2022/07/02 10:22:47;;;;;;;;;;;;;;;26.92;28.20;100358.41;1088357;54;19966;-84
2022/07/02 10:23:49;;;;;;;;;;;;;;;26.96;28.61;100360.69;1088368;54;19943;-82
2022/07/02 10:24:53;;;;;;;;;;;;;;;27.03;28.74;100358.59;1088285;54;19950;-82
2022/07/02 10:25:55;;;;;;;;;;;;;;;26.93;28.68;100362.00;1088279;54;19947;-78
2022/07/02 10:27:01;;;;;;;;;;;;;;;26.71;29.75;100353.63;1088342;54;19942;-79
2022/07/02 10:28:02;;;;;;;;;;;;;;;26.69;29.94;100350.28;1088320;54;19943;-79
2022/07/02 10:29:06;;;;;;;;;;;;;;;26.49;30.06;100346.06;1088359;54;19930;-79
2022/07/02 10:30:08;;;;;;;;;;;;;;;26.57;30.06;100350.34;1088333;54;19946;-78
2022/07/02 10:31:16;;;;;;;;;;;;;;;26.82;30.10;100344.53;1088284;54;19948;-80
2022/07/02 10:32:24;;;;;;;;;;;;;;;26.89;30.22;100347.97;1088393;54;19946;-80
2022/07/02 10:33:31;;;;;;;;;;;;;;;26.67;30.23;100350.53;1088412;54;19938;-79
2022/07/02 10:34:39;;;;;;;;;;;;;;;26.74;30.28;100347.63;1088332;54;19941;-79
2022/07/02 10:35:44;;;;;;;;;;;;;;;26.75;30.56;100341.06;1088364;54;19949;-78
2022/07/02 10:36:46;;;;;;;;;;;;;;;27.01;30.30;100347.91;1088276;54;19942;-79
2022/07/02 10:37:49;;;;;;;;;;;;;;;27.21;30.25;100344.66;1088886;46;19946;-78
2022/07/02 10:38:57;;;;;;;;;;;;;;;27.28;29.93;100346.44;1089599;46;19949;-80
2022/07/02 10:40:04;;;;;;;;;;;;;;;27.34;29.50;100349.00;1088345;54;19973;-79
2022/07/02 10:41:07;;;;;;;;;;;;;;;27.49;29.05;100342.94;1088208;54;19950;-79
2022/07/02 10:42:11;;;;;;;;;;;;;;;27.42;28.86;100339.50;1088392;54;20026;-78
2022/07/02 10:43:13;;;;;;;;;;;;;;;27.33;29.03;100343.75;1088243;54;19938;-79
2022/07/02 10:44:17;;;;;;;;;;;;;;;27.39;28.79;100340.03;1087929;54;19943;-79
2022/07/02 10:45:19;;;;;;;;;;;;;;;27.46;28.38;100337.97;1088307;39;20448;-81
2022/07/02 10:46:24;;;;;;;;;;;;;;;27.63;28.24;100329.69;1087843;54;19942;-80
2022/07/02 10:47:28;;;;;;;;;;;;;;;27.79;28.01;100330.75;1087917;54;19943;-80
2022/07/02 10:48:32;;;;;;;;;;;;;;;27.67;27.79;100330.88;1087927;54;19941;-79
2022/07/02 10:49:36;;;;;;;;;;;;;;;27.74;27.51;100327.97;1087703;54;19943;-79
2022/07/02 10:50:38;;;;;;;;;;;;;;;27.71;27.92;100325.69;1087892;54;19949;-80
2022/07/02 10:51:46;;;;;;;;;;;;;;;27.85;27.86;100316.03;1087809;54;19947;-78
2022/07/02 10:52:47;;;;;;;;;;;;;;;27.98;27.90;100319.47;1087930;54;19942;-80
2022/07/02 10:53:53;;;;;;;;;;;;;;;28.03;27.63;100322.31;1087911;54;20039;-81
2022/07/02 10:54:55;;;;;;;;;;;;;;;27.94;27.10;100321.09;1087905;54;19943;-78
2022/07/02 10:56:02;;;;;;;;;;;;;;;27.74;27.63;100314.22;1087870;54;19998;-80
2022/07/02 10:57:03;;;;;;;;;;;;;;;27.68;28.36;100317.97;1088052;46;19942;-80
2022/07/02 10:58:07;;;;;;;;;;;;;;;27.31;28.71;100305.59;1087903;54;19942;-78
2022/07/02 10:59:21;;;;;;;;;;;;;;;27.58;28.73;100304.13;1087933;54;19943;-81
2022/07/02 11:00:26;;;;;;;;;;;;;;;27.73;29.17;100309.81;1087831;54;19935;-79
2022/07/02 11:01:30;;;;;;;;;;;;;;;27.44;27.97;100309.94;1087869;54;19946;-79
2022/07/02 11:02:36;;;;;;;;;;;;;;;27.20;28.19;100310.09;1087849;54;19949;-79
2022/07/02 11:03:41;;;;;;;;;;;;;;;27.18;28.72;100317.75;1088281;54;20637;-79
2022/07/02 11:04:42;;;;;;;;;;;;;;;27.29;28.34;100310.50;1088265;54;19950;-79
2022/07/02 11:05:58;;;;;;;;;;;;;;;27.11;28.49;100317.09;1088338;54;19986;-79
2022/07/02 11:07:09;;;;;;;;;;;;;;;27.09;28.50;100319.22;1088281;54;19935;-79
2022/07/02 11:08:30;;;;;;;;;;;;;;;27.14;28.25;100311.06;1088226;54;19927;-83
2022/07/02 11:09:34;;;;;;;;;;;;;;;27.17;28.67;100317.97;1088135;54;19974;-82
2022/07/02 11:10:36;;;;;;;;;;;;;;;27.22;29.32;100321.63;1087863;54;19947;-83
2022/07/02 11:11:48;;;;;;;;;;;;;;;27.46;28.83;100312.44;1087818;54;19949;-84
2022/07/02 11:12:52;;;;;;;;;;;;;;;27.31;29.21;100311.09;1088082;54;19953;-83
2022/07/02 11:13:58;;;;;;;;;;;;;;;27.29;30.06;100309.69;1088038;54;19957;-83
2022/07/02 11:14:59;;;;;;;;;;;;;;;27.57;29.36;100308.75;1088337;46;19962;-83
2022/07/02 11:16:03;;;;;;;;;;;;;;;27.49;29.08;100303.69;1087001;54;19953;-82
2022/07/02 11:17:11;;;;;;;;;;;;;;;27.58;29.39;100309.59;1086974;54;19946;-82
2022/07/02 11:18:15;;;;;;;;;;;;;;;27.75;29.36;100310.41;1087797;54;19942;-83
2022/07/02 11:19:20;;;;;;;;;;;;;;;27.84;29.18;100308.88;1087867;54;19982;-83
2022/07/02 11:20:25;;;;;;;;;;;;;;;27.65;29.20;100307.50;1087702;54;19939;-83
2022/07/02 11:21:30;;;;;;;;;;;;;;;27.76;29.75;100306.56;1087659;54;19942;-82
2022/07/02 11:22:32;;;;;;;;;;;;;;;27.95;29.05;100304.34;1087637;54;19935;-83
2022/07/02 11:23:36;;;;;;;;;;;;;;;28.11;28.68;100296.31;1087950;46;19942;-83
2022/07/02 11:24:40;;;;;;;;;;;;;;;28.05;28.80;100303.66;1087895;54;19949;-83
2022/07/02 11:25:41;;;;;;;;;;;;;;;28.16;28.65;100299.97;1087893;54;19950;-83
2022/07/02 11:26:45;;;;;;;;;;;;;;;28.08;28.00;100303.16;1087649;54;19950;-82
2022/07/02 11:27:54;;;;;;;;;;;;;;;28.10;28.26;100300.19;1087687;54;19954;-84
2022/07/02 11:29:04;;;;;;;;;;;;;;;27.78;27.35;100298.88;1087062;54;20023;-83
2022/07/02 11:30:05;;;;;;;;;;;;;;;27.93;27.96;100294.69;1087265;54;19943;-83
2022/07/02 11:31:10;;;;;;;;;;;;;;;27.98;28.23;100281.03;1087577;54;19942;-84
2022/07/02 11:32:14;;;;;;;;;;;;;;;28.02;28.16;100284.94;1087612;54;19946;-83
2022/07/02 11:33:18;;;;;;;;;;;;;;;27.59;28.86;100283.78;1087662;54;19943;-83
2022/07/02 11:34:22;;;;;;;;;;;;;;;27.25;29.73;100276.44;1087606;54;19950;-84
2022/07/02 11:35:24;;;;;;;;;;;;;;;27.15;30.14;100287.22;1087675;54;19945;-82
2022/07/02 11:36:27;;;;;;;;;;;;;;;27.28;30.22;100283.31;1087352;54;19950;-83
2022/07/02 11:37:29;;;;;;;;;;;;;;;26.97;30.05;100288.28;1087191;54;19947;-83
2022/07/02 11:38:38;;;;;;;;;;;;;;;26.99;30.62;100286.16;1088249;54;19994;-83